Time;durP1;ratioP1;P1;durP2;ratioP2;P2;SDS_P1;SDS_P2;PMS_P1;PMS_P2;Temp;Humidity;BMP_temperature;BMP_pressure;BME280_temperature;BME280_humidity;BME280_pressure;Samples;Min_cycle;Max_cycle;Signal;HPM_P1;HPM_P2
2023/01/20 00:01:18;;;;;;;7.82;3.50;;;;;;;-1.82;52.09;91304.22;4972850;28;20038;-77
2023/01/20 00:03:44;;;;;;;4.72;2.50;;;;;;;-1.84;52.25;91308.84;4971983;28;20031;-76
2023/01/20 00:06:10;;;;;;;5.70;2.80;;;;;;;-1.84;52.23;91307.03;4961057;28;20035;-76
2023/01/20 00:08:37;;;;;;;4.18;2.08;;;;;;;-1.82;51.50;91309.34;4956437;28;20433;-76
2023/01/20 00:11:12;;;;;;;4.68;1.77;;;;;;;-1.74;45.35;91308.94;4972771;28;20352;-76
2023/01/20 00:13:38;;;;;;;4.30;2.00;;;;;;;-1.75;43.65;91308.16;4971120;28;20042;-76
2023/01/20 00:16:06;;;;;;;4.43;2.30;;;;;;;-1.74;44.09;91308.94;4968253;28;20062;-76
2023/01/20 00:18:33;;;;;;;3.53;1.95;;;;;;;-1.75;44.07;91309.97;4966830;28;20039;-77
2023/01/20 00:21:08;;;;;;;3.33;1.70;;;;;;;-1.63;41.65;91312.41;4965908;28;20039;-76
2023/01/20 00:23:34;;;;;;;3.70;1.90;;;;;;;-1.66;43.22;91315.47;4972507;28;20045;-76
2023/01/20 00:26:08;;;;;;;5.95;2.40;;;;;;;-1.74;46.18;91302.00;4972523;28;20441;-76
2023/01/20 00:28:34;;;;;;;6.10;2.70;;;;;;;-1.69;48.31;91311.56;4971717;28;20085;-76
2023/01/20 00:31:18;;;;;;;9.60;3.08;;;;;;;-1.74;49.97;91317.41;4972353;28;20034;-76
2023/01/20 00:33:45;;;;;;;5.97;2.65;;;;;;;-1.63;50.53;91323.44;4954996;28;20069;-76
2023/01/20 00:36:12;;;;;;;5.25;2.70;;;;;;;-1.68;50.05;91320.81;4970921;28;20038;-76
2023/01/20 00:38:38;;;;;;;11.32;3.00;;;;;;;-1.56;51.41;91318.88;4971935;28;20405;-76
2023/01/20 00:41:05;;;;;;;7.43;3.08;;;;;;;-1.58;52.09;91325.28;4990667;28;20042;-76
2023/01/20 00:43:31;;;;;;;6.10;2.83;;;;;;;-1.65;53.03;91325.47;4970593;28;20046;-76
2023/01/20 00:45:57;;;;;;;4.97;2.40;;;;;;;-1.65;50.74;91329.81;4972393;28;20043;-76
2023/01/20 00:48:22;;;;;;;6.63;2.90;;;;;;;-1.72;51.15;91332.56;4968798;28;20085;-76
2023/01/20 00:50:48;;;;;;;6.97;3.10;;;;;;;-1.80;56.58;91330.41;4967104;28;20047;-76
2023/01/20 00:53:14;;;;;;;11.13;4.90;;;;;;;-1.78;60.74;91336.09;4972290;28;20027;-77
2023/01/20 00:55:39;;;;;;;7.88;3.80;;;;;;;-1.82;61.70;91340.13;4972383;28;20090;-77
2023/01/20 00:58:05;;;;;;;10.10;4.50;;;;;;;-1.87;62.77;91335.72;4972003;28;20023;-77
2023/01/20 01:00:31;;;;;;;8.25;4.10;;;;;;;-1.85;63.91;91350.88;4957650;28;20556;-76
2023/01/20 01:02:56;;;;;;;7.22;3.85;;;;;;;-1.88;63.72;91352.91;4951940;28;20035;-76
2023/01/20 01:05:22;;;;;;;9.13;4.38;;;;;;;-1.86;63.91;91354.47;4945231;28;20022;-76
2023/01/20 01:07:48;;;;;;;7.63;3.90;;;;;;;-1.78;62.82;91354.03;4970324;28;20138;-76
2023/01/20 01:10:14;;;;;;;8.10;4.10;;;;;;;-1.85;62.59;91361.16;4961337;28;20117;-77
2023/01/20 01:12:40;;;;;;;8.55;4.22;;;;;;;-1.86;64.88;91354.47;4951603;28;20077;-76
2023/01/20 01:15:06;;;;;;;9.88;3.65;;;;;;;-1.85;65.68;91366.28;4970416;28;20042;-76
2023/01/20 01:17:32;;;;;;;7.55;4.03;;;;;;;-1.89;65.40;91361.63;4939107;28;20043;-76
2023/01/20 01:19:59;;;;;;;7.95;3.90;;;;;;;-1.88;64.27;91367.53;4967771;28;20050;-76
2023/01/20 01:22:24;;;;;;;8.43;3.80;;;;;;;-1.89;63.39;91364.19;4971939;28;20121;-76
2023/01/20 01:24:50;;;;;;;7.20;3.65;;;;;;;-1.89;61.71;91381.38;4967227;28;20599;-76
2023/01/20 01:27:16;;;;;;;6.95;3.00;;;;;;;-1.90;61.08;91375.47;4951709;29;20023;-76
2023/01/20 01:29:42;;;;;;;6.43;3.20;;;;;;;-1.92;59.97;91372.34;4935430;28;20039;-77
2023/01/20 01:32:08;;;;;;;4.95;2.67;;;;;;;-1.93;60.88;91372.59;4969291;28;20030;-76
2023/01/20 01:34:33;;;;;;;7.97;3.10;;;;;;;-1.94;60.39;91376.16;4971572;28;20065;-77
2023/01/20 01:36:59;;;;;;;5.47;2.88;;;;;;;-1.95;60.27;91374.63;4971632;28;20069;-76
2023/01/20 01:39:26;;;;;;;5.22;2.53;;;;;;;-1.95;60.79;91379.75;4970106;28;20169;-76
2023/01/20 01:41:52;;;;;;;5.25;2.60;;;;;;;-1.97;58.94;91380.00;4970130;28;20038;-76
2023/01/20 01:44:19;;;;;;;5.55;2.60;;;;;;;-2.01;58.17;91371.22;4970378;28;20037;-76
2023/01/20 01:46:45;;;;;;;5.43;2.80;;;;;;;-1.99;59.11;91376.88;4958495;28;20039;-76
2023/01/20 01:49:23;;;;;;;7.00;2.70;;;;;;;-2.01;59.74;91376.34;4952209;28;20043;-76
2023/01/20 01:52:03;;;;;;;5.88;2.60;;;;;;;-2.00;61.51;91375.34;4957997;28;20054;-76
2023/01/20 01:54:38;;;;;;;5.25;2.42;;;;;;;-2.01;61.42;91376.34;4967106;28;20482;-76
2023/01/20 01:57:07;;;;;;;6.47;2.78;;;;;;;-2.03;60.52;91372.47;4958462;28;20035;-76
2023/01/20 01:59:36;;;;;;;9.05;2.60;;;;;;;-1.89;57.92;91379.59;4975970;28;20026;-76
2023/01/20 02:02:02;;;;;;;5.80;2.33;;;;;;;-1.93;56.44;91375.16;4970115;28;20050;-76
2023/01/20 02:04:27;;;;;;;5.13;2.42;;;;;;;-1.99;55.26;91366.63;4971609;28;20042;-76
2023/01/20 02:07:01;;;;;;;4.70;2.63;;;;;;;-1.89;52.63;91377.03;4971764;28;20062;-76
2023/01/20 02:09:28;;;;;;;4.75;2.40;;;;;;;-1.90;53.62;91362.63;4966813;28;20493;-76
2023/01/20 02:11:59;;;;;;;5.30;2.53;;;;;;;-1.89;54.81;91366.75;4968199;28;20507;-77
2023/01/20 02:14:30;;;;;;;4.35;2.20;;;;;;;-1.89;51.98;91374.47;4963640;28;20117;-76
2023/01/20 02:17:08;;;;;;;4.10;1.90;;;;;;;-1.89;53.38;91371.91;4970827;28;20486;-75
2023/01/20 02:19:58;;;;;;;4.50;2.33;;;;;;;-1.78;49.68;91377.13;4970313;28;20030;-76
2023/01/20 02:22:41;;;;;;;3.20;1.60;;;;;;;-1.86;49.21;91369.88;4964050;28;20035;-75
2023/01/20 02:25:20;;;;;;;2.97;1.75;;;;;;;-1.73;47.00;91372.84;4969736;28;20093;-76
2023/01/20 02:27:55;;;;;;;2.47;1.40;;;;;;;-1.75;43.52;91364.63;4973664;28;20030;-76
2023/01/20 02:30:33;;;;;;;3.50;1.65;;;;;;;-1.64;42.93;91360.38;4967345;28;20137;-77
2023/01/20 02:33:14;;;;;;;2.13;1.40;;;;;;;-1.66;41.72;91359.84;4974524;28;20038;-75
2023/01/20 02:35:48;;;;;;;2.80;1.63;;;;;;;-1.72;43.03;91363.38;4964830;28;20121;-76
2023/01/20 02:38:29;;;;;;;2.65;1.60;;;;;;;-1.72;43.66;91358.22;4967615;28;20037;-76
2023/01/20 02:41:20;;;;;;;2.80;1.70;;;;;;;-1.82;44.30;91360.66;4965681;28;20030;-76
2023/01/20 02:44:01;;;;;;;3.22;1.73;;;;;;;-1.91;45.77;91362.88;4968083;28;20027;-76
2023/01/20 02:46:35;;;;;;;3.33;1.88;;;;;;;-1.99;47.29;91361.50;4963921;28;20070;-76
2023/01/20 02:49:08;;;;;;;7.50;2.15;;;;;;;-2.04;47.49;91364.00;4973000;28;20041;-76
2023/01/20 02:51:51;;;;;;;4.10;2.00;;;;;;;-2.04;48.11;91361.44;4971375;28;20521;-76
2023/01/20 02:54:20;;;;;;;3.80;2.00;;;;;;;-2.09;48.91;91361.38;4982621;28;20030;-76
2023/01/20 02:56:48;;;;;;;4.45;1.70;;;;;;;-2.08;50.18;91359.59;4967953;28;20251;-76
2023/01/20 02:59:19;;;;;;;3.50;1.90;;;;;;;-2.12;50.27;91347.25;4967089;28;20023;-76
2023/01/20 03:01:54;;;;;;;4.72;1.92;;;;;;;-2.13;49.38;91355.94;4973266;28;20043;-76
2023/01/20 03:04:35;;;;;;;3.70;1.75;;;;;;;-2.10;50.01;91354.69;4972707;28;20089;-75
2023/01/20 03:07:02;;;;;;;4.03;1.67;;;;;;;-2.13;49.90;91350.81;4965004;28;20165;-76
2023/01/20 03:09:38;;;;;;;3.78;1.67;;;;;;;-2.11;49.27;91353.91;4970411;28;20393;-76
2023/01/20 03:12:15;;;;;;;3.10;1.73;;;;;;;-2.10;49.16;91354.69;4974086;28;20783;-76
2023/01/20 03:14:41;;;;;;;4.20;2.00;;;;;;;-2.08;49.41;91357.78;4973575;28;20050;-76
2023/01/20 03:17:07;;;;;;;3.35;1.75;;;;;;;-2.08;50.86;91357.00;4972393;28;20251;-76
2023/01/20 03:19:32;;;;;;;4.50;2.10;;;;;;;-2.08;50.42;91357.00;4970787;28;20053;-76
2023/01/20 03:21:58;;;;;;;4.90;2.03;;;;;;;-2.07;50.84;91367.03;4973231;28;20544;-75
2023/01/20 03:24:28;;;;;;;3.88;2.20;;;;;;;-2.07;51.36;91353.44;4968616;28;20093;-76
2023/01/20 03:26:53;;;;;;;3.85;2.00;;;;;;;-1.89;51.36;91364.19;4966321;28;20035;-75
2023/01/20 03:29:19;;;;;;;3.95;1.60;;;;;;;-1.88;49.64;91352.91;4969035;28;20034;-76
2023/01/20 03:31:50;;;;;;;2.45;1.45;;;;;;;-1.93;47.95;91359.78;4973335;28;20449;-76
2023/01/20 03:34:19;;;;;;;1.55;1.30;;;;;;;-1.94;46.57;91356.41;4971409;28;20030;-75
2023/01/20 03:36:46;;;;;;;2.25;1.40;;;;;;;-1.92;46.09;91356.97;4936308;28;20039;-76
2023/01/20 03:39:12;;;;;;;2.28;1.30;;;;;;;-1.85;44.86;91361.16;4955883;28;20048;-76
2023/01/20 03:41:54;;;;;;;2.33;1.40;;;;;;;-1.82;44.23;91355.53;4970140;28;20117;-76
2023/01/20 03:45:07;;;;;;;2.90;1.40;;;;;;;-1.75;43.92;91346.66;4971516;28;20030;-76
2023/01/20 03:47:54;;;;;;;2.65;1.50;;;;;;;-1.80;44.72;91356.06;4946134;28;20070;-76
2023/01/20 03:50:32;;;;;;;2.95;1.50;;;;;;;-1.82;46.07;91350.41;4987849;28;20057;-75
2023/01/20 03:53:12;;;;;;;2.65;1.38;;;;;;;-1.85;45.48;91353.44;4973406;28;20038;-76
2023/01/20 03:55:45;;;;;;;2.03;1.40;;;;;;;-1.85;44.59;91356.00;4972076;28;20041;-76
2023/01/20 03:58:14;;;;;;;2.20;1.35;;;;;;;-1.87;44.49;91348.56;4970955;28;20034;-76
2023/01/20 04:00:44;;;;;;;1.70;1.30;;;;;;;-1.95;44.45;91342.06;4972421;28;20031;-75
2023/01/20 04:03:25;;;;;;;2.35;1.48;;;;;;;-1.95;44.79;91347.19;4973208;28;20037;-76
2023/01/20 04:05:51;;;;;;;4.25;1.80;;;;;;;-1.96;44.92;91348.22;4983265;28;20153;-76
2023/01/20 04:08:19;;;;;;;3.75;1.67;;;;;;;-1.97;45.64;91344.06;4976002;28;20130;-77
2023/01/20 04:10:47;;;;;;;3.92;1.77;;;;;;;-1.99;45.24;91348.66;4965503;28;20058;-77
2023/01/20 04:13:14;;;;;;;4.78;2.20;;;;;;;-2.01;46.03;91343.00;4971500;28;20548;-76
2023/01/20 04:15:43;;;;;;;4.38;1.90;;;;;;;-2.06;47.50;91350.63;4978498;28;20038;-77
2023/01/20 04:18:28;;;;;;;2.70;1.60;;;;;;;-2.11;47.79;91348.78;4985343;28;20026;-77
2023/01/20 04:21:02;;;;;;;3.05;1.73;;;;;;;-2.15;48.12;91352.06;4970210;28;20043;-77
2023/01/20 04:23:50;;;;;;;3.35;1.63;;;;;;;-2.19;48.66;91350.97;4970962;28;20034;-77
2023/01/20 04:26:16;;;;;;;3.22;1.70;;;;;;;-2.21;47.95;91347.88;4984853;28;20462;-77
2023/01/20 04:28:41;;;;;;;4.82;2.20;;;;;;;-2.24;49.20;91348.34;4972597;28;20027;-77
2023/01/20 04:31:07;;;;;;;4.18;2.00;;;;;;;-2.26;49.10;91342.69;4969800;28;20053;-77
2023/01/20 04:33:36;;;;;;;3.05;1.42;;;;;;;-2.26;47.56;91337.53;4971807;28;20045;-77
2023/01/20 04:36:02;;;;;;;1.90;1.30;;;;;;;-2.27;47.08;91343.66;4953963;28;20043;-78
2023/01/20 04:38:28;;;;;;;2.47;1.27;;;;;;;-2.29;47.10;91345.72;4970661;28;20022;-76
2023/01/20 04:40:53;;;;;;;6.05;2.60;;;;;;;-2.33;48.64;91341.03;4969896;28;20090;-77
2023/01/20 04:43:19;;;;;;;6.10;2.42;;;;;;;-2.36;49.68;91346.66;4970215;28;20072;-77
2023/01/20 04:45:44;;;;;;;4.40;1.95;;;;;;;-2.41;49.62;91351.72;4971651;28;20085;-77
2023/01/20 04:48:10;;;;;;;2.88;1.70;;;;;;;-2.47;49.23;91344.97;4969852;28;20532;-77
2023/01/20 04:50:41;;;;;;;2.22;1.30;;;;;;;-2.51;49.21;91354.13;4958253;28;20066;-77
2023/01/20 04:53:12;;;;;;;1.63;1.20;;;;;;;-2.56;48.59;91359.94;4965787;28;20027;-76
2023/01/20 04:55:37;;;;;;;2.30;1.38;;;;;;;-2.58;47.94;91363.75;4974144;28;20113;-77
2023/01/20 04:58:03;;;;;;;2.33;1.30;;;;;;;-2.63;48.47;91361.13;4971630;28;20436;-76
2023/01/20 05:00:28;;;;;;;1.50;1.05;;;;;;;-2.57;47.14;91362.72;4971133;28;20039;-77
2023/01/20 05:02:57;;;;;;;2.03;1.20;;;;;;;-2.62;47.97;91357.53;4972070;28;20041;-77
2023/01/20 05:05:23;;;;;;;1.48;1.20;;;;;;;-2.67;48.44;91354.91;4951481;29;20031;-77
2023/01/20 05:07:53;;;;;;;1.50;1.20;;;;;;;-2.76;49.02;91352.72;4953754;28;20125;-77
2023/01/20 05:10:18;;;;;;;1.88;1.10;;;;;;;-2.77;47.51;91356.31;4969771;28;20039;-77
2023/01/20 05:12:44;;;;;;;1.05;0.95;;;;;;;-2.63;44.20;91356.78;4939961;28;20508;-78
2023/01/20 05:15:10;;;;;;;1.48;1.00;;;;;;;-2.61;42.26;91359.09;4961429;28;20039;-77
2023/01/20 05:17:35;;;;;;;3.45;1.30;;;;;;;-2.58;41.33;91361.97;4967906;28;20049;-77
2023/01/20 05:20:01;;;;;;;1.23;1.10;;;;;;;-2.55;40.55;91364.06;4979643;28;20034;-77
2023/01/20 05:22:30;;;;;;;2.15;1.27;;;;;;;-2.52;40.96;91368.72;4970070;28;20039;-75
2023/01/20 05:24:56;;;;;;;0.90;0.90;;;;;;;-2.52;40.28;91368.72;4971114;28;20381;-75
2023/01/20 05:27:21;;;;;;;1.42;1.15;;;;;;;-2.54;40.88;91365.63;4973460;28;20041;-76
2023/01/20 05:29:48;;;;;;;1.55;1.05;;;;;;;-2.47;39.70;91369.81;4968391;28;20370;-76
2023/01/20 05:32:13;;;;;;;1.63;1.05;;;;;;;-2.52;39.89;91367.97;4970811;28;20031;-75
2023/01/20 05:34:39;;;;;;;1.27;0.95;;;;;;;-2.52;40.32;91367.97;4969602;28;20509;-77
2023/01/20 05:37:05;;;;;;;1.60;0.98;;;;;;;-2.53;39.76;91376.63;4971274;28;20035;-75
2023/01/20 05:39:30;;;;;;;0.98;0.90;;;;;;;-2.50;39.43;91373.59;4970133;28;20050;-75
2023/01/20 05:41:56;;;;;;;1.00;0.90;;;;;;;-2.45;39.50;91373.69;4953154;28;20134;-76
2023/01/20 05:44:21;;;;;;;1.20;1.10;;;;;;;-2.51;39.25;91375.38;4971416;28;20474;-75
2023/01/20 05:46:47;;;;;;;1.15;1.02;;;;;;;-2.54;39.16;91377.66;4969766;28;20078;-75
2023/01/20 05:49:13;;;;;;;1.23;1.00;;;;;;;-2.47;39.16;91380.84;4966036;28;20086;-75
2023/01/20 05:51:40;;;;;;;2.03;1.08;;;;;;;-2.47;38.34;91377.50;4970360;28;20113;-76
2023/01/20 05:54:06;;;;;;;1.17;1.08;;;;;;;-2.44;38.84;91388.06;4970358;28;20497;-77
2023/01/20 05:56:32;;;;;;;2.40;1.05;;;;;;;-2.45;38.22;91391.63;4979650;28;20034;-79
2023/01/20 05:58:57;;;;;;;0.90;0.90;;;;;;;-2.38;37.46;91392.25;4977855;28;20103;-78
2023/01/20 06:01:23;;;;;;;0.95;0.95;;;;;;;-2.44;38.31;91390.63;4973023;28;20129;-77
2023/01/20 06:03:48;;;;;;;3.45;1.15;;;;;;;-2.53;37.93;91379.19;4971560;28;20027;-76
2023/01/20 06:06:16;;;;;;;0.95;0.95;;;;;;;-2.52;39.00;91398.72;4969819;28;20035;-77
2023/01/20 06:08:42;;;;;;;1.92;1.10;;;;;;;-2.54;38.45;91391.25;4968218;28;20039;-76
2023/01/20 06:11:08;;;;;;;1.73;1.20;;;;;;;-2.54;38.70;91387.91;4974547;28;20039;-77
2023/01/20 06:13:34;;;;;;;1.38;1.00;;;;;;;-2.55;39.03;91391.47;4956980;28;20401;-76
2023/01/20 06:15:59;;;;;;;1.30;1.00;;;;;;;-2.62;39.11;91385.72;4968215;28;20036;-76
2023/01/20 06:18:25;;;;;;;0.80;0.80;;;;;;;-2.54;38.33;91391.25;4972262;28;20532;-77
2023/01/20 06:20:55;;;;;;;5.50;1.17;;;;;;;-2.51;37.81;91395.13;4967937;28;20117;-77
2023/01/20 06:23:20;;;;;;;1.95;1.20;;;;;;;-2.57;38.37;91401.97;4973653;28;20042;-76
2023/01/20 06:25:46;;;;;;;1.58;1.17;;;;;;;-2.51;37.44;91401.03;4969698;28;20038;-77
2023/01/20 06:28:11;;;;;;;1.77;1.17;;;;;;;-2.52;37.71;91398.72;4971603;28;20027;-77
2023/01/20 06:30:37;;;;;;;1.20;1.00;;;;;;;-2.47;37.39;91406.47;4972641;28;20046;-77
2023/01/20 06:33:07;;;;;;;2.22;1.45;;;;;;;-2.53;37.19;91412.50;4974077;28;20049;-77
2023/01/20 06:35:33;;;;;;;1.00;1.00;;;;;;;-2.54;36.97;91410.97;4988692;28;20039;-77
2023/01/20 06:37:58;;;;;;;2.25;1.10;;;;;;;-2.54;36.74;91414.31;4974070;28;20030;-76
2023/01/20 06:40:24;;;;;;;1.00;0.90;;;;;;;-2.47;37.31;91419.28;4972276;28;20113;-76
2023/01/20 06:42:49;;;;;;;0.98;0.98;;;;;;;-2.51;37.08;91420.75;4973449;28;20038;-77
2023/01/20 06:45:15;;;;;;;0.98;0.95;;;;;;;-2.49;37.31;91421.28;4972192;28;20065;-77
2023/01/20 06:47:41;;;;;;;1.63;1.10;;;;;;;-2.51;36.80;91425.88;4965160;28;20047;-77
2023/01/20 06:50:07;;;;;;;1.15;1.00;;;;;;;-2.53;36.94;91415.84;4978699;28;20057;-77
2023/01/20 06:52:32;;;;;;;0.98;0.90;;;;;;;-2.51;37.14;91415.63;4991898;28;20039;-77
2023/01/20 06:54:58;;;;;;;1.27;1.10;;;;;;;-2.57;37.49;91419.91;4995655;28;20037;-77
2023/01/20 06:57:24;;;;;;;1.10;1.00;;;;;;;-2.49;36.70;91420.53;4990036;28;20030;-77
2023/01/20 06:59:49;;;;;;;0.95;0.88;;;;;;;-2.39;36.12;91418.88;4991848;28;20492;-78
2023/01/20 07:02:15;;;;;;;1.10;1.00;;;;;;;-2.28;35.46;91421.59;4992440;28;20416;-79
2023/01/20 07:04:41;;;;;;;1.10;1.00;;;;;;;-2.34;35.99;91426.66;4978193;28;20038;-77
2023/01/20 07:07:10;;;;;;;1.20;1.10;;;;;;;-2.32;35.92;91434.91;4988396;28;20033;-77
2023/01/20 07:09:36;;;;;;;0.90;0.90;;;;;;;-2.16;34.92;91427.41;4991417;28;20026;-77
2023/01/20 07:12:01;;;;;;;0.90;0.90;;;;;;;-2.10;35.27;91431.59;4967425;28;20051;-78
2023/01/20 07:14:27;;;;;;;0.95;0.93;;;;;;;-2.02;34.34;91438.91;4956383;28;20078;-78
2023/01/20 07:16:52;;;;;;;1.77;1.17;;;;;;;-2.14;34.94;91445.91;4982910;28;20038;-77
2023/01/20 07:19:18;;;;;;;0.90;0.90;;;;;;;-2.03;35.33;91446.84;4981787;28;20035;-77
2023/01/20 07:21:43;;;;;;;1.27;1.10;;;;;;;-0.99;33.83;91446.09;4989836;28;20034;-77
2023/01/20 07:24:09;;;;;;;1.10;1.00;;;;;;;0.14;33.17;91450.41;4991511;28;20044;-78
2023/01/20 07:26:35;;;;;;;1.00;1.00;;;;;;;1.34;30.92;91442.91;4993113;28;20299;-78
2023/01/20 07:29:00;;;;;;;1.02;0.98;;;;;;;2.31;30.03;91444.75;4991029;28;20501;-78
2023/01/20 07:31:28;;;;;;;1.48;0.90;;;;;;;3.08;28.03;91453.84;4992872;28;20038;-78
2023/01/20 07:33:54;;;;;;;1.73;1.00;;;;;;;3.80;27.48;91448.28;4992746;28;20109;-78
2023/01/20 07:36:20;;;;;;;1.10;1.00;;;;;;;4.53;27.12;91449.25;4991213;28;20045;-79
2023/01/20 07:38:48;;;;;;;1.15;0.90;;;;;;;5.41;26.13;91450.59;4991450;28;20038;-79
2023/01/20 07:41:18;;;;;;;1.10;1.00;;;;;;;6.29;25.58;91454.59;4993663;28;20041;-79
2023/01/20 07:43:51;;;;;;;1.95;1.20;;;;;;;6.80;23.78;91461.53;4991855;28;20038;-79
2023/01/20 07:46:17;;;;;;;1.75;1.10;;;;;;;7.47;22.68;91461.06;4992527;28;20049;-78
2023/01/20 07:48:43;;;;;;;1.13;0.93;;;;;;;7.66;22.14;91461.72;4989289;28;20427;-78
2023/01/20 07:51:11;;;;;;;1.63;1.08;;;;;;;8.41;19.79;91456.94;4973845;28;20050;-79
2023/01/20 07:53:45;;;;;;;1.35;1.00;;;;;;;8.78;22.33;91460.25;4973589;28;20134;-78
2023/01/20 07:56:16;;;;;;;0.82;0.80;;;;;;;9.23;20.49;91456.72;4974889;28;20083;-79
2023/01/20 07:58:44;;;;;;;1.00;0.90;;;;;;;9.88;19.49;91461.19;4980278;28;20038;-78
2023/01/20 08:01:12;;;;;;;1.10;1.00;;;;;;;10.21;19.97;91451.03;4992638;28;20039;-78
2023/01/20 08:03:39;;;;;;;2.25;1.00;;;;;;;9.99;19.84;91454.56;4993603;28;20033;-79
2023/01/20 08:06:07;;;;;;;1.10;1.00;;;;;;;10.96;18.54;91468.34;4992623;28;20042;-78
2023/01/20 08:08:33;;;;;;;1.00;0.90;;;;;;;11.23;18.27;91472.44;4976866;28;20477;-79
2023/01/20 08:11:03;;;;;;;1.58;1.10;;;;;;;11.29;18.01;91471.19;4993417;28;20045;-78
2023/01/20 08:13:29;;;;;;;0.98;0.90;;;;;;;11.70;17.15;91469.75;4994164;28;20042;-79
2023/01/20 08:15:58;;;;;;;1.20;1.05;;;;;;;11.92;16.96;91481.84;4992487;28;20051;-79
2023/01/20 08:18:24;;;;;;;1.17;0.90;;;;;;;13.11;16.47;91473.59;4967054;28;20046;-78
2023/01/20 08:20:49;;;;;;;2.05;1.10;;;;;;;13.09;15.84;91478.41;4987894;28;20038;-79
2023/01/20 08:23:15;;;;;;;2.15;1.20;;;;;;;13.43;16.56;91479.13;4993535;28;20110;-79
2023/01/20 08:25:40;;;;;;;1.55;0.85;;;;;;;13.63;15.18;91480.13;4993968;28;20057;-79
2023/01/20 08:28:06;;;;;;;0.90;0.90;;;;;;;14.47;15.79;91474.31;4992110;28;20073;-80
2023/01/20 08:30:32;;;;;;;1.40;1.00;;;;;;;14.50;14.72;91478.88;4994781;28;20022;-80
2023/01/20 08:32:57;;;;;;;1.02;0.85;;;;;;;15.59;14.17;91483.97;4995108;28;20042;-80
2023/01/20 08:35:23;;;;;;;0.80;0.80;;;;;;;14.75;14.45;91480.38;4984628;28;20081;-80
2023/01/20 08:37:48;;;;;;;0.75;0.60;;;;;;;15.28;12.75;91492.63;4975188;28;20038;-80
2023/01/20 08:40:14;;;;;;;1.13;0.80;;;;;;;14.30;12.85;91493.78;4977756;28;20301;-79
2023/01/20 08:42:40;;;;;;;0.75;0.73;;;;;;;14.72;13.42;91499.47;4992276;28;20054;-80
2023/01/20 08:45:06;;;;;;;0.88;0.80;;;;;;;15.56;13.68;91498.63;4995648;28;20046;-79
2023/01/20 08:47:37;;;;;;;0.80;0.80;;;;;;;15.69;12.51;91499.28;4988139;28;20031;-80
2023/01/20 08:50:05;;;;;;;0.77;0.77;;;;;;;15.86;13.45;91508.75;4984522;28;20129;-79
2023/01/20 08:52:32;;;;;;;0.82;0.60;;;;;;;15.40;12.96;91503.09;4977282;28;20105;-79
2023/01/20 08:54:58;;;;;;;1.60;0.70;;;;;;;15.86;11.73;91508.75;4996017;28;20030;-81
2023/01/20 08:57:25;;;;;;;1.67;0.90;;;;;;;15.93;12.98;91516.84;4993999;28;20092;-79
2023/01/20 08:59:52;;;;;;;1.23;0.90;;;;;;;14.83;12.79;91522.72;4982475;28;20042;-79
2023/01/20 09:02:17;;;;;;;0.93;0.80;;;;;;;12.19;13.10;91519.94;4978409;28;20412;-80
2023/01/20 09:04:43;;;;;;;1.85;1.10;;;;;;;11.92;15.31;91528.28;4994688;28;20041;-80
2023/01/20 09:07:12;;;;;;;1.40;0.90;;;;;;;11.47;14.80;91532.16;4994729;28;20451;-79
2023/01/20 09:09:38;;;;;;;1.40;1.00;;;;;;;10.86;15.78;91534.16;4992990;28;20030;-78
2023/01/20 09:12:04;;;;;;;1.65;1.10;;;;;;;11.07;14.74;91542.13;4975300;28;20035;-80
2023/01/20 09:14:30;;;;;;;1.65;1.02;;;;;;;10.93;15.31;91543.06;4995985;28;20038;-80
2023/01/20 09:16:56;;;;;;;2.42;1.10;;;;;;;9.62;15.34;91544.75;5006510;28;20098;-79
2023/01/20 09:19:21;;;;;;;1.40;1.00;;;;;;;8.65;15.60;91550.56;5001550;28;20385;-79
2023/01/20 09:21:47;;;;;;;2.17;1.08;;;;;;;7.58;15.84;91548.34;4991975;28;20042;-79
2023/01/20 09:24:13;;;;;;;1.23;0.85;;;;;;;8.14;15.23;91568.06;4992322;28;20227;-79
2023/01/20 09:26:39;;;;;;;3.05;0.90;;;;;;;7.74;18.24;91561.84;4987758;28;20050;-79
2023/01/20 09:29:08;;;;;;;0.95;0.82;;;;;;;7.87;16.05;91560.28;4992372;28;20027;-79
2023/01/20 09:31:44;;;;;;;1.02;0.82;;;;;;;8.22;17.06;91558.00;4989796;28;20042;-78
2023/01/20 09:34:17;;;;;;;1.10;0.90;;;;;;;6.89;16.11;91566.50;4992894;28;20129;-79
2023/01/20 09:36:44;;;;;;;1.73;1.25;;;;;;;7.56;18.51;91563.47;4996705;28;20042;-79
2023/01/20 09:44:49;;;;;;;2.25;0.95;;;;;;;8.32;18.68;91566.38;4983356;28;20076;-79
2023/01/20 09:47:38;;;;;;;1.52;1.08;;;;;;;8.86;17.12;91576.94;4996955;28;20041;-78
2023/01/20 09:53:19;;;;;;;1.58;1.20;;;;;;;9.84;15.49;91584.94;4977937;28;20035;-79
2023/01/20 09:55:45;;;;;;;1.40;1.00;;;;;;;9.68;16.58;91581.97;4984940;28;20041;-79
2023/01/20 09:58:14;;;;;;;1.30;1.00;;;;;;;9.72;16.19;91586.28;4992123;28;20031;-79
2023/01/20 10:00:45;;;;;;;1.35;0.90;;;;;;;10.04;16.07;91583.63;4992627;28;20057;-79
2023/01/20 10:03:21;;;;;;;1.45;1.00;;;;;;;9.85;15.48;91583.88;4995920;28;20508;-79
2023/01/20 10:05:51;;;;;;;2.05;1.08;;;;;;;8.98;15.94;91584.22;4993549;28;20503;-79
2023/01/20 10:08:31;;;;;;;2.45;1.40;;;;;;;8.68;15.72;91583.88;4994293;28;20039;-79
2023/01/20 10:11:11;;;;;;;5.57;1.23;;;;;;;7.34;16.62;91592.00;4986301;28;20177;-79
2023/01/20 10:14:24;;;;;;;1.88;1.10;;;;;;;8.69;16.86;91589.84;4975425;28;20553;-79
2023/01/20 10:17:21;;;;;;;4.18;1.02;;;;;;;9.11;16.93;91588.63;4975894;28;20051;-79
2023/01/20 10:20:02;;;;;;;2.28;1.10;;;;;;;8.38;16.49;91600.19;4990779;28;20050;-78
2023/01/20 10:22:41;;;;;;;2.70;0.90;;;;;;;8.34;16.30;91589.56;4977187;28;20039;-79
2023/01/20 10:25:21;;;;;;;2.53;1.10;;;;;;;8.47;16.79;91594.00;4976221;28;20057;-79
2023/01/20 10:28:09;;;;;;;2.05;1.10;;;;;;;9.27;16.92;91586.41;4979628;28;20042;-79
2023/01/20 10:30:36;;;;;;;1.13;0.80;;;;;;;9.34;16.30;91585.97;4992627;28;20057;-78
2023/01/20 10:33:08;;;;;;;0.85;0.80;;;;;;;9.43;15.57;91583.41;4994151;28;20030;-78
2023/01/20 10:35:38;;;;;;;3.43;1.63;;;;;;;8.95;14.95;91584.84;4992286;28;20046;-79
2023/01/20 10:38:18;;;;;;;2.03;1.10;;;;;;;9.08;17.74;91588.47;4993613;28;20753;-78
2023/01/20 10:40:54;;;;;;;0.95;0.60;;;;;;;8.25;15.11;91588.72;4974835;28;20053;-78
2023/01/20 10:43:20;;;;;;;1.20;0.82;;;;;;;7.80;15.50;91583.38;4974279;28;20049;-79
2023/01/20 10:46:15;;;;;;;1.55;0.93;;;;;;;8.06;18.30;91588.81;4974708;28;20476;-78
2023/01/20 10:48:48;;;;;;;1.60;1.08;;;;;;;7.53;16.14;91600.53;4977452;28;20086;-78
2023/01/20 10:51:49;;;;;;;1.40;1.00;;;;;;;8.16;17.91;91593.09;4993804;28;20129;-77
2023/01/20 10:54:54;;;;;;;1.08;0.98;;;;;;;8.44;16.53;91596.41;4993622;28;20488;-78
2023/01/20 10:57:19;;;;;;;1.58;1.00;;;;;;;7.45;16.23;91599.38;4987550;28;20493;-80
2023/01/20 11:00:00;;;;;;;2.90;1.20;;;;;;;7.86;17.97;91611.63;4983942;28;20070;-79
2023/01/20 11:02:36;;;;;;;1.52;1.00;;;;;;;8.33;17.13;91608.88;4975957;28;20076;-79
2023/01/20 11:05:18;;;;;;;1.00;0.90;;;;;;;8.70;17.11;91605.22;4993511;28;20056;-77
2023/01/20 11:07:45;;;;;;;1.20;0.98;;;;;;;8.10;15.81;91598.38;4991823;28;20030;-78
2023/01/20 11:10:16;;;;;;;1.77;0.95;;;;;;;8.22;17.50;91599.72;4990809;28;20616;-78
2023/01/20 11:12:44;;;;;;;0.93;0.80;;;;;;;8.26;16.33;91603.28;4991572;28;20523;-79
2023/01/20 11:15:19;;;;;;;1.70;0.90;;;;;;;8.11;16.89;91610.38;4991931;28;20036;-79
2023/01/20 11:17:46;;;;;;;0.88;0.80;;;;;;;6.70;17.01;91597.72;4993086;28;20045;-77
2023/01/20 11:20:21;;;;;;;1.63;1.00;;;;;;;7.20;18.96;91615.41;4977559;28;20042;-78
2023/01/20 11:22:49;;;;;;;1.10;0.95;;;;;;;8.01;18.49;91615.75;4993241;28;20072;-78
2023/01/20 11:25:25;;;;;;;1.50;0.90;;;;;;;8.48;18.61;91605.19;4993523;28;20113;-79
2023/01/20 11:27:52;;;;;;;1.58;1.00;;;;;;;7.61;17.57;91610.28;4993069;28;20469;-79
2023/01/20 11:30:27;;;;;;;2.28;1.10;;;;;;;7.41;18.09;91613.25;4991272;28;20058;-78
2023/01/20 11:33:16;;;;;;;1.45;1.10;;;;;;;6.34;17.51;91610.47;4992425;28;20485;-79
2023/01/20 11:36:06;;;;;;;1.15;0.93;;;;;;;6.57;17.70;91609.63;4993025;28;20039;-78
2023/01/20 11:38:49;;;;;;;2.05;1.13;;;;;;;6.61;18.45;91617.63;4983885;28;20411;-79
2023/01/20 11:41:29;;;;;;;1.23;1.02;;;;;;;6.85;18.68;91602.69;4992641;28;20089;-79
2023/01/20 11:43:57;;;;;;;2.95;1.50;;;;;;;6.44;19.06;91613.72;4992828;28;20047;-79
2023/01/20 11:46:24;;;;;;;1.02;0.90;;;;;;;6.81;19.71;91612.13;4972521;28;20039;-79
2023/01/20 11:49:04;;;;;;;2.20;1.08;;;;;;;7.23;18.99;91601.84;4973143;28;20034;-78
2023/01/20 11:51:31;;;;;;;2.33;1.20;;;;;;;6.72;19.83;91598.22;4974161;28;20465;-79
2023/01/20 11:54:09;;;;;;;3.55;1.00;;;;;;;6.92;19.25;91604.19;4978357;28;20030;-79
2023/01/20 11:56:40;;;;;;;0.85;0.82;;;;;;;6.85;18.87;91597.50;4991893;28;20066;-78
2023/01/20 11:59:19;;;;;;;3.50;1.15;;;;;;;6.76;19.43;91599.22;4988029;28;20106;-79